Time,TemperatureF,DewpointF,PressureIn,WindDirection,WindDirectionDegrees,WindSpeedMPH,WindSpeedGustMPH,Humidity,HourlyPrecipIn,Conditions,Clouds,dailyrainin,SoftwareType,DateUTC
2013-05-02 00:14:00,34.4,12.0,30.25,SW,229,3.0,9.0,39,0.00,,,0.00,weatherlink.com 1.10,2013-05-02 06:14:00,
2013-05-02 00:29:00,32.9,11.0,30.27,SW,229,4.0,8.0,41,0.00,,,0.00,weatherlink.com 1.10,2013-05-02 06:29:00,
2013-05-02 00:44:00,31.6,11.0,30.27,SW,227,2.0,5.0,42,0.00,,,0.00,weatherlink.com 1.10,2013-05-02 06:44:00,
2013-05-02 00:59:00,30.8,11.0,30.28,SW,227,2.0,4.0,43,0.00,,,0.00,weatherlink.com 1.10,2013-05-02 06:59:00,
2013-05-02 01:14:00,30.1,10.0,30.29,SW,228,2.0,5.0,43,0.00,,,0.00,weatherlink.com 1.10,2013-05-02 07:14:00,
2013-05-02 01:29:00,29.4,10.0,30.30,SW,228,2.0,4.0,44,0.00,,,0.00,weatherlink.com 1.10,2013-05-02 07:29:00,
2013-05-02 01:44:00,28.8,10.0,30.30,SW,228,2.0,4.0,45,0.00,,,0.00,weatherlink.com 1.10,2013-05-02 07:44:00,
2013-05-02 01:59:00,28.7,10.0,30.30,SW,227,1.0,5.0,45,0.00,,,0.00,weatherlink.com 1.10,2013-05-02 07:59:00,
2013-05-02 02:14:00,28.2,9.0,30.30,SW,226,1.0,4.0,45,0.00,,,0.00,weatherlink.com 1.10,2013-05-02 08:14:00,
2013-05-02 02:29:00,27.4,9.0,30.31,SW,226,1.0,4.0,46,0.00,,,0.00,weatherlink.com 1.10,2013-05-02 08:29:00,
2013-05-02 02:44:00,27.3,9.0,30.32,SW,226,0.0,0.0,46,0.00,,,0.00,weatherlink.com 1.10,2013-05-02 08:44:00,
2013-05-02 02:59:00,26.6,9.0,30.32,SW,226,0.0,3.0,47,0.00,,,0.00,weatherlink.com 1.10,2013-05-02 08:59:00,
2013-05-02 03:14:00,25.8,8.0,30.34,SW,226,0.0,0.0,48,0.00,,,0.00,weatherlink.com 1.10,2013-05-02 09:14:00,
2013-05-02 03:29:00,24.9,8.0,30.35,SW,226,0.0,2.0,49,0.00,,,0.00,weatherlink.com 1.10,2013-05-02 09:29:00,
2013-05-02 03:44:00,24.1,7.0,30.36,SW,226,0.0,0.0,48,0.00,,,0.00,weatherlink.com 1.10,2013-05-02 09:44:00,
2013-05-02 04:00:00,23.2,7.0,30.38,SW,226,0.0,1.0,50,0.00,,,0.00,weatherlink.com 1.10,2013-05-02 10:00:00,
2013-05-02 04:15:00,22.9,8.0,30.39,SW,226,0.0,1.0,52,0.00,,,0.00,weatherlink.com 1.10,2013-05-02 10:15:00,
2013-05-02 04:30:00,23.0,8.0,30.40,SW,226,0.0,1.0,53,0.00,,,0.00,weatherlink.com 1.10,2013-05-02 10:30:00,
2013-05-02 04:45:00,22.3,7.0,30.41,SW,226,0.0,1.0,53,0.00,,,0.00,weatherlink.com 1.10,2013-05-02 10:45:00,
2013-05-02 05:00:00,21.9,7.0,30.43,SW,226,0.0,0.0,54,0.00,,,0.00,weatherlink.com 1.10,2013-05-02 11:00:00,
2013-05-02 05:15:00,21.6,8.0,30.43,SW,226,0.0,4.0,57,0.00,,,0.00,weatherlink.com 1.10,2013-05-02 11:15:00,
2013-05-02 05:29:00,22.1,8.0,30.44,SW,226,0.0,1.0,56,0.00,,,0.00,weatherlink.com 1.10,2013-05-02 11:29:00,
2013-05-02 05:45:00,21.7,7.0,30.44,SW,226,2.0,3.0,54,0.00,,,0.00,weatherlink.com 1.10,2013-05-02 11:45:00,
2013-05-02 06:00:00,21.3,8.0,30.45,SW,226,0.0,2.0,56,0.00,,,0.00,weatherlink.com 1.10,2013-05-02 12:00:00,
2013-05-02 06:15:00,21.2,8.0,30.47,SW,226,0.0,1.0,56,0.00,,,0.00,weatherlink.com 1.10,2013-05-02 12:15:00,
2013-05-02 06:30:00,21.6,9.0,30.49,SW,226,0.0,1.0,58,0.00,,,0.00,weatherlink.com 1.10,2013-05-02 12:30:00,
2013-05-02 06:45:00,21.8,9.0,30.49,SW,226,0.0,0.0,58,0.00,,,0.00,weatherlink.com 1.10,2013-05-02 12:45:00,
2013-05-02 07:00:00,22.0,9.0,30.51,SW,226,0.0,0.0,58,0.00,,,0.00,weatherlink.com 1.10,2013-05-02 13:00:00,
2013-05-02 07:15:00,24.8,11.0,30.53,SW,226,2.0,3.0,55,0.00,,,0.00,weatherlink.com 1.10,2013-05-02 13:15:00,
2013-05-02 07:30:00,27.2,11.0,30.54,SW,226,3.0,5.0,51,0.00,,,0.00,weatherlink.com 1.10,2013-05-02 13:30:00,
2013-05-02 07:45:00,28.8,12.0,30.55,SW,226,2.0,5.0,50,0.00,,,0.00,weatherlink.com 1.10,2013-05-02 13:45:00,
2013-05-02 08:00:00,30.0,12.0,30.55,SW,226,1.0,7.0,47,0.00,,,0.00,weatherlink.com 1.10,2013-05-02 14:00:00,
2013-05-02 08:15:00,31.0,12.0,30.56,SW,226,0.0,4.0,45,0.00,,,0.00,weatherlink.com 1.10,2013-05-02 14:15:00,
2013-05-02 08:30:00,31.7,12.0,30.56,SW,226,0.0,5.0,44,0.00,,,0.00,weatherlink.com 1.10,2013-05-02 14:30:00,
2013-05-02 08:45:00,32.9,12.0,30.56,SW,227,3.0,7.0,43,0.00,,,0.00,weatherlink.com 1.10,2013-05-02 14:45:00,
2013-05-02 09:00:00,33.9,13.0,30.57,SW,227,3.0,5.0,42,0.00,,,0.00,weatherlink.com 1.10,2013-05-02 15:00:00,
2013-05-02 09:15:00,35.3,13.0,30.57,WSW,242,3.0,6.0,40,0.00,,,0.00,weatherlink.com 1.10,2013-05-02 15:15:00,
2013-05-02 09:30:00,36.1,13.0,30.57,West,265,3.0,8.0,39,0.00,,,0.00,weatherlink.com 1.10,2013-05-02 15:30:00,
2013-05-02 09:45:00,37.6,14.0,30.58,West,266,1.0,5.0,38,0.00,,,0.00,weatherlink.com 1.10,2013-05-02 15:45:00,
2013-05-02 10:00:00,38.0,14.0,30.58,WSW,251,2.0,8.0,37,0.00,,,0.00,weatherlink.com 1.10,2013-05-02 16:00:00,
2013-05-02 10:15:00,39.2,14.0,30.59,West,265,3.0,7.0,36,0.00,,,0.00,weatherlink.com 1.10,2013-05-02 16:15:00,
2013-05-02 10:30:00,39.4,12.0,30.60,West,265,3.0,8.0,33,0.00,,,0.00,weatherlink.com 1.10,2013-05-02 16:30:00,
2013-05-02 10:46:00,41.7,13.0,30.60,West,273,0.0,7.0,31,0.00,,,0.00,weatherlink.com 1.10,2013-05-02 16:46:00,
2013-05-02 11:01:00,42.9,12.0,30.59,WSW,247,5.0,9.0,28,0.00,,,0.00,weatherlink.com 1.10,2013-05-02 17:01:00,
2013-05-02 11:16:00,43.7,12.0,30.60,WNW,288,2.0,6.0,27,0.00,,,0.00,weatherlink.com 1.10,2013-05-02 17:16:00,
2013-05-02 11:31:00,44.7,7.0,30.60,North,355,4.0,15.0,21,0.00,,,0.00,weatherlink.com 1.10,2013-05-02 17:31:00,
2013-05-02 11:46:00,45.9,7.0,30.61,NNW,342,1.0,12.0,20,0.00,,,0.00,weatherlink.com 1.10,2013-05-02 17:46:00,
2013-05-02 12:01:00,46.4,6.0,30.60,NW,324,5.0,16.0,19,0.00,,,0.00,weatherlink.com 1.10,2013-05-02 18:01:00,
2013-05-02 12:16:00,47.1,1.0,30.59,NW,310,6.0,17.0,15,0.00,,,0.00,weatherlink.com 1.10,2013-05-02 18:16:00,
2013-05-02 12:31:00,48.3,2.0,30.59,NW,321,4.0,18.0,15,0.00,,,0.00,weatherlink.com 1.10,2013-05-02 18:31:00,
2013-05-02 12:46:00,48.8,0.0,30.59,NNW,339,9.0,19.0,13,0.00,,,0.00,weatherlink.com 1.10,2013-05-02 18:46:00,
2013-05-02 13:01:00,48.1,1.0,30.60,NNW,347,4.0,18.0,14,0.00,,,0.00,weatherlink.com 1.10,2013-05-02 19:01:00,
2013-05-02 13:16:00,48.8,3.0,30.60,NNW,338,8.0,16.0,15,0.00,,,0.00,weatherlink.com 1.10,2013-05-02 19:16:00,
2013-05-02 13:31:00,48.8,3.0,30.60,North,5,8.0,14.0,15,0.00,,,0.00,weatherlink.com 1.10,2013-05-02 19:31:00,
2013-05-02 13:46:00,50.0,5.0,30.59,NNE,17,4.0,15.0,16,0.00,,,0.00,weatherlink.com 1.10,2013-05-02 19:46:00,
2013-05-02 14:01:00,49.9,5.0,30.59,NNW,345,9.0,14.0,16,0.00,,,0.00,weatherlink.com 1.10,2013-05-02 20:01:00,
2013-05-02 14:16:00,51.1,6.0,30.60,North,355,10.0,16.0,16,0.00,,,0.00,weatherlink.com 1.10,2013-05-02 20:16:00,
2013-05-02 14:31:00,51.0,6.0,30.60,North,349,8.0,16.0,16,0.00,,,0.00,weatherlink.com 1.10,2013-05-02 20:31:00,
2013-05-02 14:46:00,50.5,6.0,30.59,NW,317,4.0,11.0,16,0.00,,,0.00,weatherlink.com 1.10,2013-05-02 20:46:00,
2013-05-02 15:02:00,51.9,7.0,30.59,ENE,58,7.0,11.0,16,0.00,,,0.00,weatherlink.com 1.10,2013-05-02 21:02:00,
2013-05-02 15:17:00,51.2,6.0,30.59,WNW,295,3.0,8.0,16,0.00,,,0.00,weatherlink.com 1.10,2013-05-02 21:17:00,
2013-05-02 15:32:00,51.9,8.0,30.59,NNW,339,8.0,11.0,17,0.00,,,0.00,weatherlink.com 1.10,2013-05-02 21:32:00,
2013-05-02 15:47:00,50.6,7.0,30.58,WSW,238,0.0,12.0,17,0.00,,,0.00,weatherlink.com 1.10,2013-05-02 21:47:00,
2013-05-02 16:02:00,52.3,8.0,30.58,North,5,0.0,8.0,17,0.00,,,0.00,weatherlink.com 1.10,2013-05-02 22:02:00,
2013-05-02 16:17:00,52.5,9.0,30.58,NNW,342,3.0,12.0,17,0.00,,,0.00,weatherlink.com 1.10,2013-05-02 22:17:00,
2013-05-02 16:32:00,53.5,8.0,30.58,NNE,32,5.0,7.0,16,0.00,,,0.00,weatherlink.com 1.10,2013-05-02 22:32:00,
2013-05-02 16:47:00,53.1,8.0,30.58,NW,316,4.0,9.0,16,0.00,,,0.00,weatherlink.com 1.10,2013-05-02 22:47:00,
2013-05-02 17:02:00,52.8,8.0,30.58,WSW,249,0.0,9.0,16,0.00,,,0.00,weatherlink.com 1.10,2013-05-02 23:02:00,
2013-05-02 17:17:00,53.2,9.0,30.58,WSW,257,1.0,7.0,17,0.00,,,0.00,weatherlink.com 1.10,2013-05-02 23:17:00,
2013-05-02 17:32:00,53.3,8.0,30.58,WSW,253,1.0,7.0,16,0.00,,,0.00,weatherlink.com 1.10,2013-05-02 23:32:00,
2013-05-02 17:47:00,53.8,8.0,30.57,NW,306,5.0,6.0,16,0.00,,,0.00,weatherlink.com 1.10,2013-05-02 23:47:00,
2013-05-02 18:02:00,53.6,8.0,30.58,North,355,3.0,7.0,16,0.00,,,0.00,weatherlink.com 1.10,2013-05-03 00:02:00,
2013-05-02 18:18:00,53.4,8.0,30.58,North,355,1.0,3.0,16,0.00,,,0.00,weatherlink.com 1.10,2013-05-03 00:18:00,
2013-05-02 18:33:00,53.3,8.0,30.58,NNW,329,0.0,5.0,16,0.00,,,0.00,weatherlink.com 1.10,2013-05-03 00:33:00,
2013-05-02 18:48:00,53.0,8.0,30.57,NNW,329,0.0,4.0,16,0.00,,,0.00,weatherlink.com 1.10,2013-05-03 00:48:00,
2013-05-02 19:03:00,52.7,7.0,30.57,NNW,327,4.0,4.0,16,0.00,,,0.00,weatherlink.com 1.10,2013-05-03 01:03:00,
2013-05-02 19:18:00,51.9,8.0,30.57,NNW,327,0.0,1.0,17,0.00,,,0.00,weatherlink.com 1.10,2013-05-03 01:18:00,
2013-05-02 19:48:00,49.2,7.0,30.58,NNW,327,0.0,0.0,18,0.00,,,0.00,weatherlink.com 1.10,2013-05-03 01:48:00,
2013-05-02 20:03:00,44.5,7.0,30.58,NNW,327,2.0,2.0,21,0.00,,,0.00,weatherlink.com 1.10,2013-05-03 02:03:00,
2013-05-02 20:18:00,41.6,5.0,30.59,NNW,327,1.0,3.0,22,0.00,,,0.00,weatherlink.com 1.10,2013-05-03 02:18:00,
2013-05-02 20:33:00,40.6,5.0,30.59,NNW,327,0.0,3.0,23,0.00,,,0.00,weatherlink.com 1.10,2013-05-03 02:33:00,
2013-05-02 20:48:00,41.8,10.0,30.60,South,173,5.0,13.0,27,0.00,,,0.00,weatherlink.com 1.10,2013-05-03 02:48:00,
2013-05-02 21:03:00,41.5,9.0,30.61,SSE,168,2.0,7.0,26,0.00,,,0.00,weatherlink.com 1.10,2013-05-03 03:03:00,
2013-05-02 21:18:00,41.1,8.0,30.61,South,171,0.0,7.0,26,0.00,,,0.00,weatherlink.com 1.10,2013-05-03 03:18:00,
2013-05-02 21:33:00,40.4,9.0,30.62,South,171,0.0,7.0,27,0.00,,,0.00,weatherlink.com 1.10,2013-05-03 03:33:00,
2013-05-02 21:49:00,39.8,9.0,30.63,South,171,0.0,2.0,28,0.00,,,0.00,weatherlink.com 1.10,2013-05-03 03:49:00,
2013-05-02 22:03:00,37.6,9.0,30.63,South,171,0.0,1.0,30,0.00,,,0.00,weatherlink.com 1.10,2013-05-03 04:03:00,
2013-05-02 22:18:00,36.7,8.0,30.64,South,171,0.0,2.0,30,0.00,,,0.00,weatherlink.com 1.10,2013-05-03 04:18:00,
2013-05-02 22:33:00,35.3,7.0,30.64,South,171,0.0,2.0,30,0.00,,,0.00,weatherlink.com 1.10,2013-05-03 04:33:00,
2013-05-02 22:48:00,33.3,6.0,30.65,South,171,0.0,0.0,32,0.00,,,0.00,weatherlink.com 1.10,2013-05-03 04:48:00,
2013-05-02 23:03:00,32.0,6.0,30.65,South,171,0.0,2.0,33,0.00,,,0.00,weatherlink.com 1.10,2013-05-03 05:03:00,
2013-05-02 23:18:00,31.0,6.0,30.65,South,171,0.0,1.0,35,0.00,,,0.00,weatherlink.com 1.10,2013-05-03 05:18:00,
2013-05-02 23:34:00,31.4,7.0,30.65,South,171,1.0,4.0,36,0.00,,,0.00,weatherlink.com 1.10,2013-05-03 05:34:00,
2013-05-02 23:49:00,32.3,8.0,30.66,South,171,2.0,3.0,36,0.00,,,0.00,weatherlink.com 1.10,2013-05-03 05:49:00,